Time;durP1;ratioP1;P1;durP2;ratioP2;P2;SDS_P1;SDS_P2;PMS_P1;PMS_P2;Temp;Humidity;BMP_temperature;BMP_pressure;BME280_temperature;BME280_humidity;BME280_pressure;Samples;Min_cycle;Max_cycle;Signal;HPM_P1;HPM_P2
2022/03/28 00:02:22;;;;;;;11.80;9.23;;;6.70;99.90;;;;;;4927813;29;20479;-67
2022/03/28 00:05:13;;;;;;;12.40;7.90;;;6.80;99.90;;;;;;4929161;29;20471;-66
2022/03/28 00:08:01;;;;;;;11.17;8.50;;;6.90;99.90;;;;;;4931545;29;20603;-66
2022/03/28 00:10:51;;;;;;;11.50;8.53;;;6.90;99.90;;;;;;4926296;29;20494;-66
2022/03/28 00:13:39;;;;;;;15.37;8.97;;;6.90;99.90;;;;;;4923246;29;20488;-66
2022/03/28 00:16:27;;;;;;;12.57;9.40;;;6.90;99.90;;;;;;4928859;29;20555;-66
2022/03/28 00:19:15;;;;;;;10.97;8.70;;;6.80;99.90;;;;;;4924129;29;20455;-67
2022/03/28 00:22:04;;;;;;;8.80;7.33;;;6.90;99.90;;;;;;4923948;29;20542;-67
2022/03/28 00:24:52;;;;;;;10.57;6.47;;;6.90;99.90;;;;;;4924534;29;20511;-66
2022/03/28 00:27:42;;;;;;;7.83;6.03;;;6.90;99.90;;;;;;4926713;29;20606;-66
2022/03/28 00:30:30;;;;;;;7.10;6.23;;;6.80;99.90;;;;;;4928526;29;20942;-67
2022/03/28 00:33:19;;;;;;;7.83;6.87;;;6.70;99.90;;;;;;4923491;29;20480;-67
2022/03/28 00:36:07;;;;;;;8.47;6.47;;;6.80;99.90;;;;;;4923430;29;20452;-67
2022/03/28 00:38:56;;;;;;;7.90;5.90;;;6.90;99.90;;;;;;4921432;29;20543;-66
2022/03/28 00:41:47;;;;;;;7.73;6.77;;;6.90;99.90;;;;;;4923673;29;20801;-66
2022/03/28 00:44:37;;;;;;;8.17;6.57;;;6.90;99.90;;;;;;4924034;29;20455;-67
2022/03/28 00:47:25;;;;;;;10.43;7.20;;;6.90;99.90;;;;;;4925640;29;20460;-67
2022/03/28 00:50:14;;;;;;;9.50;6.80;;;6.70;99.90;;;;;;4921687;29;20581;-67
2022/03/28 00:53:04;;;;;;;12.37;8.80;;;6.60;99.90;;;;;;4927439;29;20475;-67
2022/03/28 00:55:53;;;;;;;11.33;7.93;;;6.50;99.90;;;;;;4923286;29;20460;-66
2022/03/28 00:58:42;;;;;;;13.10;9.17;;;6.50;99.90;;;;;;4927348;29;20467;-67
2022/03/28 01:01:32;;;;;;;13.10;9.20;;;6.60;99.90;;;;;;4926820;29;20464;-67
2022/03/28 01:04:21;;;;;;;17.50;10.63;;;6.60;99.90;;;;;;4924393;28;20480;-67
2022/03/28 01:07:10;;;;;;;15.83;10.30;;;6.50;99.90;;;;;;4923739;29;20599;-67
2022/03/28 01:09:59;;;;;;;14.37;10.00;;;6.60;99.90;;;;;;4924539;29;21092;-66
2022/03/28 01:12:48;;;;;;;16.00;9.57;;;6.60;99.90;;;;;;4924815;29;20510;-67
2022/03/28 01:15:40;;;;;;;14.93;9.87;;;6.60;99.90;;;;;;4921208;29;21043;-67
2022/03/28 01:18:29;;;;;;;15.43;10.60;;;6.70;99.90;;;;;;4925619;29;20685;-67
2022/03/28 01:21:18;;;;;;;13.10;9.37;;;6.70;99.90;;;;;;4922321;29;20706;-67
2022/03/28 01:24:06;;;;;;;18.93;11.20;;;6.70;99.90;;;;;;4924394;29;20566;-66
2022/03/28 01:26:56;;;;;;;15.20;10.80;;;6.70;99.90;;;;;;4925544;29;20456;-66
2022/03/28 01:29:48;;;;;;;18.37;10.80;;;6.70;99.90;;;;;;4926733;29;20519;-66
2022/03/28 01:32:37;;;;;;;17.67;11.53;;;6.70;99.90;;;;;;4941820;28;20495;-66
2022/03/28 01:35:31;;;;;;;17.73;12.87;;;6.60;99.90;;;;;;4937041;29;20483;-66
2022/03/28 01:38:21;;;;;;;21.20;14.00;;;6.60;99.90;;;;;;4924131;29;20491;-66
2022/03/28 01:41:11;;;;;;;19.20;13.03;;;6.50;99.90;;;;;;4923032;29;20865;-67
2022/03/28 01:43:59;;;;;;;19.83;13.90;;;6.50;99.90;;;;;;4924862;29;20458;-67
2022/03/28 01:46:48;;;;;;;23.80;15.30;;;6.50;99.90;;;;;;4925585;29;20540;-66
2022/03/28 01:49:37;;;;;;;22.60;15.57;;;6.40;99.90;;;;;;4925573;29;20460;-67
2022/03/28 01:52:25;;;;;;;24.20;16.60;;;6.30;99.90;;;;;;4930086;29;21383;-66
2022/03/28 01:55:15;;;;;;;25.83;17.13;;;6.20;99.90;;;;;;4929974;29;20544;-66
2022/03/28 01:58:03;;;;;;;22.00;16.17;;;6.20;99.90;;;;;;4926300;29;20551;-67
2022/03/28 02:00:51;;;;;;;24.77;16.77;;;6.20;99.90;;;;;;4928914;29;21003;-67
2022/03/28 02:03:39;;;;;;;21.53;15.90;;;6.20;99.90;;;;;;4925613;29;21151;-67
2022/03/28 02:06:29;;;;;;;21.43;14.70;;;6.30;99.90;;;;;;4928245;29;20821;-66
2022/03/28 02:09:17;;;;;;;23.57;16.37;;;6.20;99.90;;;;;;4928120;29;20546;-66
2022/03/28 02:12:08;;;;;;;24.47;15.23;;;6.20;99.90;;;;;;4929238;29;20607;-66
2022/03/28 02:14:56;;;;;;;18.67;13.53;;;6.20;99.90;;;;;;4923339;29;20453;-67
2022/03/28 02:17:46;;;;;;;19.07;14.40;;;6.30;99.90;;;;;;4924480;29;20572;-67
2022/03/28 02:20:34;;;;;;;17.83;13.80;;;6.30;99.90;;;;;;4931721;29;20547;-66
2022/03/28 02:23:23;;;;;;;17.50;12.47;;;6.30;99.90;;;;;;4925509;29;20523;-67
2022/03/28 02:26:14;;;;;;;15.10;11.23;;;6.20;99.90;;;;;;4931998;28;21163;-66
2022/03/28 02:29:06;;;;;;;19.70;12.20;;;6.20;99.90;;;;;;4928897;29;20464;-66
2022/03/28 02:31:54;;;;;;;17.90;12.80;;;6.30;99.90;;;;;;4927958;29;20478;-66
2022/03/28 02:34:42;;;;;;;18.27;12.43;;;6.30;99.90;;;;;;4926422;29;20618;-66
2022/03/28 02:37:31;;;;;;;17.50;11.90;;;6.20;99.90;;;;;;4932100;29;20539;-67
2022/03/28 02:40:20;;;;;;;15.50;11.17;;;6.20;99.90;;;;;;4926032;29;20534;-67
2022/03/28 02:43:08;;;;;;;16.97;11.53;;;6.20;99.90;;;;;;4929863;29;20540;-66
2022/03/28 02:45:58;;;;;;;17.50;11.80;;;6.20;99.90;;;;;;4930237;29;20452;-66
2022/03/28 02:48:46;;;;;;;14.37;10.27;;;6.20;99.90;;;;;;4926977;29;20917;-67
2022/03/28 02:51:34;;;;;;;13.87;9.93;;;6.20;99.90;;;;;;4927968;29;20528;-67
2022/03/28 02:54:23;;;;;;;10.70;7.47;;;6.20;99.90;;;;;;4930035;29;22143;-67
2022/03/28 02:57:11;;;;;;;9.07;6.67;;;6.10;99.90;;;;;;4923187;28;20555;-66
2022/03/28 03:00:00;;;;;;;9.27;6.50;;;6.00;99.90;;;;;;4931372;29;20941;-67
2022/03/28 03:02:51;;;;;;;11.00;6.80;;;5.90;99.90;;;;;;4930415;29;20542;-66
2022/03/28 03:05:43;;;;;;;8.10;6.73;;;6.00;99.90;;;;;;4928552;29;20547;-66
2022/03/28 03:08:32;;;;;;;10.23;7.30;;;6.00;99.90;;;;;;4923674;29;20457;-67
2022/03/28 03:11:20;;;;;;;11.83;7.50;;;6.00;99.90;;;;;;4927308;29;20477;-67
2022/03/28 03:14:08;;;;;;;11.87;7.83;;;6.10;99.90;;;;;;4924784;29;20476;-66
2022/03/28 03:16:57;;;;;;;11.10;7.50;;;6.20;99.90;;;;;;4923382;29;21153;-66
2022/03/28 03:19:47;;;;;;;12.63;7.73;;;6.10;99.90;;;;;;4927393;29;20460;-67
2022/03/28 03:22:37;;;;;;;13.47;8.27;;;6.10;99.90;;;;;;4930632;29;20550;-66
2022/03/28 03:25:25;;;;;;;12.90;7.90;;;6.00;99.90;;;;;;4925296;29;20467;-66
2022/03/28 03:28:13;;;;;;;14.27;7.90;;;6.00;99.90;;;;;;4925605;29;20487;-66
2022/03/28 03:31:01;;;;;;;10.10;6.70;;;6.00;99.90;;;;;;4921031;29;20457;-69
2022/03/28 03:33:50;;;;;;;7.97;5.80;;;6.00;99.90;;;;;;4924712;29;20494;-67
2022/03/28 03:36:39;;;;;;;9.53;6.10;;;6.00;99.90;;;;;;4925561;29;20471;-67
2022/03/28 03:39:28;;;;;;;10.30;7.00;;;6.00;99.90;;;;;;4922972;29;20957;-66
2022/03/28 03:42:17;;;;;;;10.73;7.43;;;6.00;99.90;;;;;;4924001;29;20575;-66
2022/03/28 03:45:06;;;;;;;10.30;7.70;;;6.00;99.90;;;;;;4926424;29;20942;-66
2022/03/28 03:47:54;;;;;;;9.87;6.77;;;6.00;99.90;;;;;;4922968;29;20487;-66
2022/03/28 03:50:42;;;;;;;8.90;6.50;;;6.00;99.90;;;;;;4923821;29;20535;-67
2022/03/28 03:53:32;;;;;;;8.67;7.17;;;6.00;99.90;;;;;;4925623;29;20508;-67
2022/03/28 03:56:20;;;;;;;10.40;7.27;;;6.00;99.90;;;;;;4923215;29;20460;-66
2022/03/28 03:59:08;;;;;;;10.50;6.87;;;6.00;99.90;;;;;;4923777;29;20468;-66
2022/03/28 04:01:56;;;;;;;9.87;8.10;;;6.00;99.90;;;;;;4923627;29;20467;-66
2022/03/28 04:04:45;;;;;;;12.13;7.60;;;6.00;99.90;;;;;;4926117;29;20992;-67
2022/03/28 04:07:33;;;;;;;10.07;7.67;;;6.00;99.90;;;;;;4928766;29;20504;-67
2022/03/28 04:10:26;;;;;;;9.83;6.97;;;6.00;99.90;;;;;;4947060;29;20663;-66
2022/03/28 04:13:15;;;;;;;8.00;6.33;;;6.00;99.90;;;;;;4929194;29;20506;-67
2022/03/28 04:16:05;;;;;;;8.73;6.73;;;6.10;99.90;;;;;;4924600;29;20611;-66
2022/03/28 04:18:54;;;;;;;9.23;7.10;;;6.10;99.90;;;;;;4925573;29;20882;-66
2022/03/28 04:21:43;;;;;;;10.60;7.80;;;6.10;99.90;;;;;;4926616;29;20626;-66
2022/03/28 04:24:32;;;;;;;11.70;7.83;;;6.00;99.90;;;;;;4924798;29;20510;-67
2022/03/28 04:27:21;;;;;;;9.47;7.20;;;6.00;99.90;;;;;;4925508;29;20487;-67
2022/03/28 04:30:12;;;;;;;10.77;7.87;;;6.00;99.90;;;;;;4919960;29;21034;-66
2022/03/28 04:33:00;;;;;;;12.43;7.23;;;6.00;99.90;;;;;;4927514;29;20555;-67
2022/03/28 04:35:49;;;;;;;10.40;7.70;;;6.00;99.90;;;;;;4926320;29;20543;-66
2022/03/28 04:38:37;;;;;;;11.27;7.27;;;6.10;99.90;;;;;;4927074;29;20464;-66
2022/03/28 04:41:27;;;;;;;7.90;6.43;;;6.00;99.90;;;;;;4922893;29;20626;-66
2022/03/28 04:44:31;;;;;;;9.40;6.37;;;6.00;99.90;;;;;;4959824;23;20506;-71
2022/03/28 04:47:19;;;;;;;5.80;4.30;;;6.00;99.90;;;;;;4940875;28;20466;-71
2022/03/28 04:50:09;;;;;;;5.07;4.37;;;6.00;99.90;;;;;;4940262;28;20566;-71
2022/03/28 04:52:57;;;;;;;4.97;3.83;;;6.00;99.90;;;;;;4941739;28;20865;-70
2022/03/28 04:55:52;;;;;;;3.67;3.20;;;6.10;99.90;;;;;;4945405;29;20498;-71
2022/03/28 04:58:40;;;;;;;5.93;3.40;;;6.10;99.90;;;;;;4947452;29;20602;-71
2022/03/28 05:01:30;;;;;;;5.13;3.87;;;6.10;99.90;;;;;;4939318;28;20493;-71
2022/03/28 05:04:21;;;;;;;4.40;3.90;;;6.20;99.90;;;;;;4942642;28;21032;-71
2022/03/28 05:07:10;;;;;;;5.80;4.00;;;6.20;99.90;;;;;;4950736;28;20509;-72
2022/03/28 05:10:01;;;;;;;4.50;3.37;;;6.00;99.90;;;;;;4964391;28;20545;-71
2022/03/28 05:12:49;;;;;;;5.20;3.63;;;6.00;99.90;;;;;;4963665;28;20483;-71
2022/03/28 05:15:37;;;;;;;5.67;4.80;;;6.00;99.90;;;;;;4968520;28;20478;-71
2022/03/28 05:18:27;;;;;;;5.07;4.50;;;6.00;99.90;;;;;;4961780;28;20529;-70
2022/03/28 05:21:15;;;;;;;6.20;4.77;;;6.10;99.90;;;;;;4959955;28;20462;-71
2022/03/28 05:24:03;;;;;;;5.50;4.47;;;6.10;99.90;;;;;;4976801;28;20608;-71
2022/03/28 05:26:53;;;;;;;4.83;4.23;;;6.10;99.90;;;;;;4962844;28;20952;-71
2022/03/28 05:29:41;;;;;;;6.80;3.90;;;6.10;99.90;;;;;;4966388;28;20537;-71
2022/03/28 05:32:29;;;;;;;5.60;3.33;;;6.10;99.90;;;;;;4965697;28;20462;-71
2022/03/28 05:35:19;;;;;;;4.40;3.10;;;6.10;99.90;;;;;;4969125;28;21024;-71
2022/03/28 05:38:07;;;;;;;3.00;2.67;;;6.00;99.90;;;;;;4978887;28;20466;-71
2022/03/28 05:40:56;;;;;;;3.10;2.53;;;6.10;99.90;;;;;;4968026;28;20541;-71
2022/03/28 05:43:44;;;;;;;3.87;2.50;;;6.10;99.90;;;;;;4961260;28;20488;-71
2022/03/28 05:46:34;;;;;;;2.57;2.07;;;6.00;99.90;;;;;;4969522;28;20446;-71
2022/03/28 05:49:23;;;;;;;3.13;2.00;;;6.00;99.90;;;;;;4974355;28;20458;-71
2022/03/28 05:52:14;;;;;;;3.30;2.67;;;6.00;99.90;;;;;;4971378;28;20510;-72
2022/03/28 05:55:02;;;;;;;2.43;2.10;;;5.90;99.90;;;;;;4969204;28;20622;-71
2022/03/28 05:57:50;;;;;;;3.07;1.87;;;5.90;99.90;;;;;;4972199;28;20458;-71
2022/03/28 06:00:39;;;;;;;2.00;1.80;;;5.90;99.90;;;;;;4964335;28;20833;-71
2022/03/28 06:03:28;;;;;;;2.67;2.37;;;6.00;99.90;;;;;;4964613;28;20483;-71
2022/03/28 06:06:24;;;;;;;2.00;1.80;;;6.00;99.90;;;;;;4968418;28;20965;-71
2022/03/28 06:09:13;;;;;;;1.87;1.63;;;6.00;99.90;;;;;;4966810;28;20600;-71
2022/03/28 06:12:01;;;;;;;2.43;1.70;;;6.00;99.90;;;;;;4970124;28;20874;-71
2022/03/28 06:14:50;;;;;;;1.60;1.50;;;6.00;99.90;;;;;;4959888;28;20478;-71
2022/03/28 06:17:39;;;;;;;1.53;1.20;;;6.00;99.90;;;;;;4966216;28;20542;-71
2022/03/28 06:20:27;;;;;;;1.33;1.00;;;6.00;99.90;;;;;;4973984;28;20457;-71
2022/03/28 06:23:16;;;;;;;1.20;1.10;;;6.00;99.90;;;;;;4965103;28;20573;-71
2022/03/28 06:26:06;;;;;;;3.97;1.13;;;5.90;99.90;;;;;;4965029;28;20496;-71
2022/03/28 06:28:54;;;;;;;1.97;1.87;;;5.90;99.90;;;;;;4969726;28;20485;-71
2022/03/28 06:31:42;;;;;;;1.77;1.67;;;5.80;99.90;;;;;;4964743;28;20486;-72
2022/03/28 06:34:34;;;;;;;4.43;2.13;;;5.80;99.90;;;;;;4966659;28;21151;-71
2022/03/28 06:37:23;;;;;;;1.80;1.60;;;5.80;99.90;;;;;;4965831;28;20960;-71
2022/03/28 06:40:13;;;;;;;1.93;1.73;;;5.90;99.90;;;;;;4972263;28;20477;-71
2022/03/28 06:43:04;;;;;;;3.67;2.33;;;5.90;99.90;;;;;;4969393;28;21009;-71
2022/03/28 06:45:53;;;;;;;2.60;2.30;;;5.80;99.90;;;;;;4967475;28;20465;-71
2022/03/28 06:48:41;;;;;;;2.50;2.30;;;5.80;99.90;;;;;;4966594;28;20460;-71
2022/03/28 06:51:29;;;;;;;2.53;2.33;;;5.90;99.90;;;;;;4963299;28;20560;-71
2022/03/28 06:54:19;;;;;;;2.33;1.90;;;5.80;99.90;;;;;;4961231;28;20478;-71
2022/03/28 06:57:07;;;;;;;2.90;2.03;;;5.90;99.90;;;;;;4968774;28;21361;-71
2022/03/28 06:59:57;;;;;;;2.10;1.83;;;5.90;99.90;;;;;;4966336;28;20446;-71
2022/03/28 07:02:45;;;;;;;2.63;2.27;;;6.00;99.90;;;;;;4966268;28;20482;-71
2022/03/28 07:05:34;;;;;;;1.60;1.50;;;6.00;99.90;;;;;;4967928;28;20461;-71
2022/03/28 07:08:22;;;;;;;2.83;2.50;;;6.00;99.90;;;;;;4963278;28;20992;-71
2022/03/28 07:11:10;;;;;;;3.10;2.50;;;6.00;99.90;;;;;;4966291;28;20451;-71
2022/03/28 07:13:59;;;;;;;2.27;1.97;;;6.00;99.90;;;;;;4965615;28;20482;-70
2022/03/28 07:16:48;;;;;;;2.10;1.90;;;6.00;99.90;;;;;;4965024;28;20482;-71
2022/03/28 07:19:36;;;;;;;1.87;1.63;;;6.00;99.90;;;;;;4965765;28;20841;-71
2022/03/28 07:22:25;;;;;;;2.30;2.10;;;6.10;99.90;;;;;;4962744;28;20532;-71
2022/03/28 07:25:13;;;;;;;2.20;1.83;;;6.10;99.90;;;;;;4968628;28;20461;-71
2022/03/28 07:28:07;;;;;;;2.77;2.47;;;6.10;99.90;;;;;;4968369;28;20486;-71
2022/03/28 07:30:55;;;;;;;4.03;2.97;;;6.20;99.90;;;;;;4959645;28;20451;-71
2022/03/28 07:33:46;;;;;;;4.00;3.10;;;6.20;99.90;;;;;;4970340;28;20558;-71
2022/03/28 07:36:34;;;;;;;4.13;3.30;;;6.20;99.90;;;;;;4966351;28;20462;-71
2022/03/28 07:39:22;;;;;;;3.30;3.00;;;6.30;99.90;;;;;;4971709;28;20454;-72
2022/03/28 07:42:13;;;;;;;4.80;3.53;;;6.30;99.90;;;;;;4968644;28;20569;-71
2022/03/28 07:45:04;;;;;;;4.77;3.37;;;6.20;99.90;;;;;;4971316;28;20549;-71
2022/03/28 07:47:52;;;;;;;4.20;2.97;;;6.20;99.90;;;;;;4960447;28;20487;-72
2022/03/28 07:50:42;;;;;;;4.53;3.80;;;6.30;99.90;;;;;;4964887;28;20573;-71
2022/03/28 07:53:30;;;;;;;4.23;2.60;;;6.40;99.90;;;;;;4959848;28;20575;-71
2022/03/28 07:56:18;;;;;;;2.80;2.50;;;6.40;99.90;;;;;;4962733;28;20595;-71
2022/03/28 07:59:07;;;;;;;3.00;2.70;;;6.40;99.90;;;;;;4965403;28;20967;-71
2022/03/28 08:01:55;;;;;;;2.10;1.90;;;6.40;99.90;;;;;;4963271;28;20469;-70
2022/03/28 08:04:46;;;;;;;3.80;2.80;;;6.40;99.90;;;;;;4966366;28;20462;-71
2022/03/28 08:07:36;;;;;;;2.93;2.60;;;6.40;99.90;;;;;;4963321;28;20610;-71
2022/03/28 08:10:25;;;;;;;3.23;2.93;;;6.40;99.90;;;;;;4961310;28;20466;-71
2022/03/28 08:13:13;;;;;;;3.60;3.07;;;6.40;99.90;;;;;;4965830;28;20479;-70
2022/03/28 08:16:02;;;;;;;3.73;3.43;;;6.40;99.90;;;;;;4964451;28;20501;-72
2022/03/28 08:18:50;;;;;;;4.13;3.67;;;6.40;99.90;;;;;;4964592;28;20486;-72
2022/03/28 08:21:38;;;;;;;4.50;4.10;;;6.50;99.90;;;;;;4965866;28;20546;-72
2022/03/28 08:24:27;;;;;;;6.00;5.30;;;6.50;99.90;;;;;;4969178;28;20486;-72
2022/03/28 08:27:16;;;;;;;6.07;5.30;;;6.50;99.90;;;;;;4963043;28;20505;-72
2022/03/28 08:30:05;;;;;;;5.40;4.83;;;6.50;99.90;;;;;;4960544;28;20459;-71
2022/03/28 08:32:55;;;;;;;7.73;5.40;;;6.50;99.90;;;;;;4963373;28;20474;-71
2022/03/28 08:35:43;;;;;;;8.43;6.10;;;6.50;99.90;;;;;;4967860;28;20852;-71
2022/03/28 08:38:31;;;;;;;6.27;5.60;;;6.50;99.90;;;;;;4964466;28;20533;-71
2022/03/28 08:41:26;;;;;;;7.60;5.70;;;6.60;99.90;;;;;;4966877;28;20537;-71
2022/03/28 08:44:14;;;;;;;5.87;5.27;;;6.60;99.90;;;;;;4962319;28;20483;-71
2022/03/28 08:47:02;;;;;;;6.07;5.10;;;6.60;99.90;;;;;;4963234;28;20458;-70
2022/03/28 08:49:51;;;;;;;5.77;5.00;;;6.70;99.90;;;;;;4964645;28;20472;-70
2022/03/28 08:52:41;;;;;;;5.30;4.80;;;6.70;99.90;;;;;;4966650;28;20510;-71
2022/03/28 08:55:29;;;;;;;4.87;4.37;;;6.70;99.90;;;;;;4963040;28;20533;-71
2022/03/28 08:58:18;;;;;;;4.90;4.50;;;6.70;99.90;;;;;;4966012;28;20561;-71
2022/03/28 09:01:08;;;;;;;4.87;4.37;;;6.70;99.90;;;;;;4966265;28;20537;-70
2022/03/28 09:03:58;;;;;;;5.33;4.37;;;6.80;99.90;;;;;;4961422;28;20994;-70
2022/03/28 09:06:46;;;;;;;4.30;3.90;;;6.80;99.90;;;;;;4966173;28;20495;-71
2022/03/28 09:09:36;;;;;;;5.13;4.60;;;6.80;99.90;;;;;;4966212;28;20488;-71
2022/03/28 09:12:24;;;;;;;4.40;4.00;;;6.90;99.90;;;;;;4964843;28;20442;-71
2022/03/28 09:15:16;;;;;;;5.87;4.80;;;6.90;99.90;;;;;;4962797;28;20479;-71
2022/03/28 09:18:05;;;;;;;7.63;5.43;;;7.00;99.90;;;;;;4961032;28;20458;-71
2022/03/28 09:20:55;;;;;;;5.53;4.90;;;7.00;99.90;;;;;;4964153;28;20558;-71
2022/03/28 09:23:44;;;;;;;7.87;6.27;;;7.10;99.90;;;;;;4964005;28;20482;-72
2022/03/28 09:26:33;;;;;;;6.23;5.63;;;7.10;99.90;;;;;;4969703;28;20457;-71
2022/03/28 09:29:21;;;;;;;7.50;6.10;;;7.10;99.90;;;;;;4965195;28;20482;-72
2022/03/28 09:32:22;;;;;;;7.93;6.40;;;7.20;99.90;;;;;;4961886;28;20498;-71
2022/03/28 09:35:13;;;;;;;8.83;6.90;;;7.20;99.90;;;;;;4965941;28;20641;-72
2022/03/28 09:38:04;;;;;;;8.13;6.30;;;7.20;99.90;;;;;;4969352;28;20447;-70
2022/03/28 09:40:58;;;;;;;7.23;6.10;;;7.30;99.90;;;;;;4963256;28;20450;-70
2022/03/28 09:43:54;;;;;;;9.77;7.27;;;7.30;99.90;;;;;;4966164;28;21164;-70
2022/03/28 09:46:42;;;;;;;9.27;7.10;;;7.30;99.90;;;;;;4963181;28;20526;-70
2022/03/28 09:49:32;;;;;;;11.10;8.30;;;7.30;99.90;;;;;;4959504;28;20450;-70
2022/03/28 09:52:25;;;;;;;8.40;6.90;;;7.30;99.90;;;;;;4964113;28;20545;-70
2022/03/28 09:55:14;;;;;;;10.77;7.90;;;7.30;99.90;;;;;;4964170;28;20970;-71
2022/03/28 09:58:03;;;;;;;10.40;7.30;;;7.40;99.90;;;;;;4968599;28;20842;-71
2022/03/28 10:00:51;;;;;;;9.63;7.90;;;7.40;99.90;;;;;;4962321;28;20453;-70
2022/03/28 10:03:40;;;;;;;8.77;7.33;;;7.50;99.90;;;;;;4965442;28;21016;-72
2022/03/28 10:06:30;;;;;;;9.80;8.00;;;7.50;99.90;;;;;;4961825;28;20509;-71
2022/03/28 10:09:18;;;;;;;6.67;5.87;;;7.60;99.90;;;;;;4963700;28;20469;-70
2022/03/28 10:12:07;;;;;;;6.30;5.20;;;7.80;99.90;;;;;;4969384;28;20970;-72
2022/03/28 10:14:58;;;;;;;5.80;5.17;;;7.90;99.90;;;;;;4967260;28;20451;-72
2022/03/28 10:17:47;;;;;;;6.73;4.77;;;8.00;99.90;;;;;;4968049;28;20454;-70
2022/03/28 10:20:41;;;;;;;6.00;5.20;;;8.20;99.90;;;;;;4967192;28;20450;-71
2022/03/28 10:23:35;;;;;;;6.23;5.60;;;8.30;99.90;;;;;;4968182;28;20465;-70
2022/03/28 10:26:29;;;;;;;7.40;6.60;;;8.30;99.90;;;;;;4964347;28;20446;-72
2022/03/28 10:29:21;;;;;;;9.27;7.10;;;8.40;99.90;;;;;;4969821;28;20446;-72
2022/03/28 10:32:15;;;;;;;7.23;6.30;;;8.40;99.90;;;;;;4971462;28;20801;-72
2022/03/28 10:35:07;;;;;;;6.70;6.10;;;8.40;99.90;;;;;;4976051;28;20977;-71
2022/03/28 10:38:15;;;;;;;6.17;5.40;;;8.50;99.90;;;;;;4968209;28;20612;-72
2022/03/28 10:41:05;;;;;;;8.97;8.00;;;8.60;99.90;;;;;;4969132;28;20454;-72
2022/03/28 10:44:03;;;;;;;7.23;5.87;;;8.80;99.90;;;;;;4972267;23;20552;-67
2022/03/28 10:47:06;;;;;;;6.53;5.90;;;8.90;99.90;;;;;;4949636;29;20487;-67
2022/03/28 10:49:55;;;;;;;6.60;5.67;;;9.10;99.90;;;;;;4948237;29;20541;-67
2022/03/28 10:53:08;;;;;;;7.10;6.20;;;9.20;99.90;;;;;;4953034;28;21037;-67
2022/03/28 10:55:59;;;;;;;7.10;6.40;;;9.20;99.90;;;;;;4926383;29;20471;-66
2022/03/28 10:58:51;;;;;;;7.40;5.70;;;9.30;99.90;;;;;;4922073;29;20452;-67
2022/03/28 11:01:42;;;;;;;7.73;7.03;;;9.40;99.90;;;;;;4932890;29;20562;-67
2022/03/28 11:04:30;;;;;;;7.37;6.67;;;9.50;99.90;;;;;;4935445;29;20603;-66
2022/03/28 11:07:22;;;;;;;8.20;7.50;;;9.70;99.90;;;;;;4921908;29;20452;-67
2022/03/28 11:10:13;;;;;;;8.47;7.77;;;9.80;99.90;;;;;;4934864;29;20974;-67
2022/03/28 11:13:15;;;;;;;9.93;9.03;;;9.90;99.90;;;;;;4925178;29;20457;-67
2022/03/28 11:16:06;;;;;;;9.33;8.43;;;10.00;99.90;;;;;;4932568;29;20478;-67
2022/03/28 11:19:25;;;;;;;9.10;8.30;;;10.00;99.90;;;;;;4937089;29;20811;-67
2022/03/28 11:22:13;;;;;;;10.80;9.70;;;10.10;99.90;;;;;;4927948;29;20451;-68
2022/03/28 11:25:01;;;;;;;10.33;9.37;;;10.30;99.90;;;;;;4927701;29;20488;-67
2022/03/28 11:27:50;;;;;;;8.90;7.80;;;10.40;99.90;;;;;;4916987;29;20961;-67
2022/03/28 11:30:50;;;;;;;6.90;6.40;;;10.50;99.90;;;;;;4926478;29;20456;-67
2022/03/28 11:33:42;;;;;;;9.57;7.20;;;10.50;99.90;;;;;;4929230;29;20611;-68
2022/03/28 11:36:32;;;;;;;8.40;7.30;;;10.60;99.90;;;;;;4935793;29;20472;-68
2022/03/28 11:39:21;;;;;;;7.17;6.47;;;10.60;99.90;;;;;;4929473;29;20591;-68
2022/03/28 11:42:10;;;;;;;6.43;5.93;;;10.60;99.90;;;;;;4928289;29;20453;-68
2022/03/28 11:45:05;;;;;;;6.57;5.97;;;10.60;99.90;;;;;;4925161;29;20487;-68
2022/03/28 11:47:54;;;;;;;6.63;6.00;;;10.70;99.90;;;;;;4920474;29;20620;-68
2022/03/28 11:50:44;;;;;;;6.80;6.20;;;10.70;99.90;;;;;;4923947;29;20956;-68
2022/03/28 11:53:33;;;;;;;6.23;5.73;;;10.70;99.90;;;;;;4923902;28;20484;-68
2022/03/28 11:56:27;;;;;;;6.90;6.30;;;10.70;99.90;;;;;;4932369;29;21051;-68
2022/03/28 11:59:15;;;;;;;6.67;6.07;;;10.70;99.90;;;;;;4925520;29;20461;-67
2022/03/28 12:02:09;;;;;;;6.77;5.97;;;10.70;99.90;;;;;;4923675;29;20479;-68
2022/03/28 12:04:57;;;;;;;6.80;5.77;;;10.80;99.90;;;;;;4932394;29;20503;-67
2022/03/28 12:07:47;;;;;;;8.57;6.37;;;10.90;99.90;;;;;;4945460;29;21399;-68
2022/03/28 12:10:37;;;;;;;6.93;6.30;;;10.90;99.90;;;;;;4941449;29;20469;-68
2022/03/28 12:13:26;;;;;;;6.60;5.83;;;10.80;99.90;;;;;;4928021;29;21062;-68
2022/03/28 12:16:15;;;;;;;9.17;6.60;;;10.60;99.90;;;;;;4927625;29;20471;-68
2022/03/28 12:19:16;;;;;;;8.57;6.17;;;10.60;99.90;;;;;;4930639;29;20459;-68
2022/03/28 12:22:14;;;;;;;7.07;5.87;;;10.60;99.90;;;;;;4929997;29;20518;-67
2022/03/28 12:25:04;;;;;;;7.80;7.10;;;10.70;99.90;;;;;;4934584;29;20480;-68
2022/03/28 12:27:53;;;;;;;10.03;7.80;;;10.60;99.90;;;;;;4933721;29;20489;-68
2022/03/28 12:30:45;;;;;;;8.23;6.93;;;10.60;99.90;;;;;;4926536;29;20611;-68
2022/03/28 12:33:35;;;;;;;8.00;7.20;;;10.60;99.90;;;;;;4927201;29;20480;-68
2022/03/28 12:36:28;;;;;;;6.83;6.13;;;10.60;99.90;;;;;;4934621;29;20460;-68
2022/03/28 12:39:20;;;;;;;7.20;6.50;;;10.70;99.90;;;;;;4928370;29;20460;-68
2022/03/28 12:42:09;;;;;;;8.23;7.47;;;10.70;99.90;;;;;;4926295;29;20452;-68
2022/03/28 12:44:57;;;;;;;8.17;7.37;;;10.60;99.90;;;;;;4930718;29;20656;-68
2022/03/28 12:47:55;;;;;;;7.50;6.80;;;10.60;99.90;;;;;;4929149;29;20464;-68
2022/03/28 12:50:58;;;;;;;7.90;6.87;;;10.60;99.90;;;;;;4930068;29;20489;-67
2022/03/28 12:53:46;;;;;;;12.90;7.10;;;10.60;99.90;;;;;;4929744;29;20479;-68
2022/03/28 12:56:45;;;;;;;11.47;7.87;;;10.70;99.90;;;;;;4930320;29;20535;-68
2022/03/28 12:59:35;;;;;;;8.13;7.07;;;10.50;99.90;;;;;;4928780;29;20512;-68
2022/03/28 13:02:24;;;;;;;7.17;6.57;;;10.50;99.90;;;;;;4931626;29;20635;-68
2022/03/28 13:05:16;;;;;;;9.00;7.50;;;10.40;99.90;;;;;;4929664;28;20860;-68
2022/03/28 13:08:10;;;;;;;7.80;7.03;;;10.40;99.90;;;;;;4926632;29;20607;-68
2022/03/28 13:11:14;;;;;;;8.70;7.77;;;10.40;99.90;;;;;;4928607;29;20456;-68
2022/03/28 13:14:02;;;;;;;9.60;8.03;;;10.40;99.90;;;;;;4917403;29;21179;-68
2022/03/28 13:17:04;;;;;;;8.03;7.23;;;10.40;99.90;;;;;;4918833;29;20472;-67
2022/03/28 13:19:57;;;;;;;8.20;7.00;;;10.30;99.90;;;;;;4922134;28;22513;-68
2022/03/28 13:22:46;;;;;;;8.33;7.47;;;10.30;99.90;;;;;;4916973;29;20509;-70
2022/03/28 13:25:44;;;;;;;7.63;6.93;;;10.30;99.90;;;;;;4923059;29;20839;-68
2022/03/28 13:28:33;;;;;;;7.57;6.80;;;10.30;99.90;;;;;;4931301;29;21027;-68
2022/03/28 13:31:22;;;;;;;7.93;7.13;;;10.30;99.90;;;;;;4928071;28;20451;-67
2022/03/28 13:34:11;;;;;;;8.60;7.50;;;10.30;99.90;;;;;;4917145;29;20473;-68
2022/03/28 13:37:05;;;;;;;13.73;10.90;;;10.20;99.90;;;;;;4925715;29;20534;-68
2022/03/28 13:39:53;;;;;;;12.50;11.13;;;10.10;99.90;;;;;;4919311;29;20839;-68
2022/03/28 13:42:41;;;;;;;12.73;10.40;;;10.00;99.90;;;;;;4923640;29;20495;-68
2022/03/28 13:45:31;;;;;;;9.93;8.93;;;10.00;99.90;;;;;;4920136;29;20494;-68
2022/03/28 13:48:21;;;;;;;9.57;8.57;;;10.00;99.90;;;;;;4920433;29;20511;-68
2022/03/28 13:51:11;;;;;;;8.07;7.27;;;9.90;99.90;;;;;;4929673;29;20457;-68
2022/03/28 13:54:16;;;;;;;9.50;7.83;;;9.80;99.90;;;;;;4928418;29;21096;-68
2022/03/28 13:57:04;;;;;;;9.10;8.20;;;9.80;99.90;;;;;;4935270;29;20460;-68
2022/03/28 13:59:52;;;;;;;9.37;8.47;;;9.80;99.90;;;;;;4931757;29;20456;-68
2022/03/28 14:02:41;;;;;;;9.23;8.33;;;9.70;99.90;;;;;;4934033;29;20479;-68
2022/03/28 14:05:29;;;;;;;9.83;8.00;;;9.60;99.90;;;;;;4919743;29;20468;-69
2022/03/28 14:08:19;;;;;;;9.70;8.70;;;9.50;99.90;;;;;;4931857;29;20459;-68
2022/03/28 14:11:08;;;;;;;9.67;8.20;;;9.50;99.90;;;;;;4924270;29;20467;-68
2022/03/28 14:13:56;;;;;;;11.23;8.80;;;9.50;99.90;;;;;;4931002;29;20590;-68
2022/03/28 14:16:45;;;;;;;8.53;7.40;;;9.40;99.90;;;;;;4935673;29;20592;-68
2022/03/28 14:19:33;;;;;;;9.73;8.00;;;9.50;99.90;;;;;;4928375;29;20536;-68
2022/03/28 14:22:22;;;;;;;11.50;8.60;;;9.40;99.90;;;;;;4936520;29;20448;-68
2022/03/28 14:25:12;;;;;;;10.97;8.93;;;9.40;99.90;;;;;;4932512;28;20479;-68
2022/03/28 14:28:00;;;;;;;10.87;8.50;;;9.30;99.90;;;;;;4933759;29;20467;-68
2022/03/28 14:30:49;;;;;;;10.67;9.30;;;9.20;99.90;;;;;;4930604;29;23307;-68
2022/03/28 14:33:38;;;;;;;11.30;9.03;;;9.20;99.90;;;;;;4929663;29;20492;-68
2022/03/28 14:36:26;;;;;;;11.27;8.87;;;9.10;99.90;;;;;;4936679;29;20487;-68
2022/03/28 14:39:14;;;;;;;11.87;9.27;;;9.10;99.90;;;;;;4929995;29;20616;-68
2022/03/28 14:42:04;;;;;;;9.53;8.33;;;9.00;99.90;;;;;;4934549;29;20546;-68
2022/03/28 14:44:53;;;;;;;12.27;9.93;;;9.00;99.90;;;;;;4926838;29;20499;-68
2022/03/28 14:47:41;;;;;;;11.77;10.10;;;9.00;99.90;;;;;;4924575;29;20797;-68
2022/03/28 14:50:29;;;;;;;12.50;9.43;;;9.00;99.90;;;;;;4924045;29;20543;-69